WetterOnline ( http://www.wetteronline.de )

Wetter aktuell Bottrop

Aktuelles Wetter: Essen (161m)

6-stündlich | Neueste Meldungen
Ortszeit Temperatur Wetter
Di, 23.05. 2:00 18.0° C bedeckt
Mo, 22.05. 20:00 22.1° C leicht bewölkt
Mo, 22.05. 14:00 21.4° C wolkig
Mo, 22.05. 8:00 15.2° C wolkig
Ortszeit Temperatur Wetter
Di, 23.05. 7:00 15.4° C leicht bewölkt
Di, 23.05. 6:30 15.3° C wolkig
Di, 23.05. 6:00 15.6° C bewölkt
Di, 23.05. 5:30 16.2° C bedeckt
Di, 23.05. 5:00 16.5° C bedeckt
Di, 23.05. 4:30 16.8° C bedeckt
Ortszeit Relative Feuchte Sichtweite
Di, 23.05. 2:00 55% 40 km
Mo, 22.05. 20:00 39% 65 km
Mo, 22.05. 14:00 44% 45 km
Mo, 22.05. 8:00 63% 40 km
Ortszeit Relative Feuchte Sichtweite
Di, 23.05. 7:00 71% 26 km
Di, 23.05. 6:30 69% 26 km
Di, 23.05. 6:00 67% 28 km
Di, 23.05. 5:30 64% 30 km
Di, 23.05. 5:00 62% 30 km
Di, 23.05. 4:30 60% 35 km
Ortszeit Niederschlagsmenge Niederschlagsart
Di, 23.05. 2:00 0,0 l/m2 in 6 Std. -
Mo, 22.05. 20:00 0,0 l/m2 in 12 Std. -
Mo, 22.05. 14:00 0,0 l/m2 in 6 Std. -
Mo, 22.05. 8:00 0,0 l/m2 in 12 Std. -
Ortszeit Niederschlagsmenge Niederschlagsart
Di, 23.05. 7:00 0,0 l/m2 in 1 Std. -
Di, 23.05. 6:30 keine Meldung -
Di, 23.05. 6:00 0,0 l/m2 in 1 Std. -
Di, 23.05. 5:30 keine Meldung -
Di, 23.05. 5:00 0,0 l/m2 in 1 Std. -
Di, 23.05. 4:30 keine Meldung -
Ortszeit Stärke Spitze Richtung
km/h Bft. km/h Grad Sektor
Di, 23.05. 2:00 13 3 22 160° S
Mo, 22.05. 20:00 4 1 25 180° S
Mo, 22.05. 14:00 9 2 22 190° S
Mo, 22.05. 8:00 9 2 15 110° O
Ortszeit Stärke Spitze Richtung
km/h Bft. km/h Grad Sektor
Di, 23.05. 7:00 7 2 14 180° S
Di, 23.05. 6:30 7 2 11 170° S
Di, 23.05. 6:00 7 2 18 180° S
Di, 23.05. 5:30 7 2 18 190° S
Di, 23.05. 5:00 9 2 17 170° S
Di, 23.05. 4:30 9 2 17 170° S
Ortszeit Untergrenze Bedeckung Gattung
total tief tief mittel hoch
Di, 23.05. 2:00 4500 m 8/8 8/8 - - -
Mo, 22.05. 20:00 8100 m 8/8 0/8 - - -
Mo, 22.05. 14:00 1800 m 6/8 6/8 - - -
Mo, 22.05. 8:00 1800 m 7/8 7/8 - - -
Ortszeit Bedeckungsgrad in Achtel und Wolkenuntergrenze
Di, 23.05. 7:00 4(7200m)
Di, 23.05. 6:30 8(7200m)
Di, 23.05. 6:00 6(4500m) 8(7500m)
Di, 23.05. 5:30 8(4500m) 8(5100m) 8(8100m)
Di, 23.05. 5:00 8(4500m) 8(5100m)
Di, 23.05. 4:30 8(4500m) 8(6300m)
Ortszeit Luftdruck NN (hPa) Tendenz (hPa in 3 Std.)
Di, 23.05. 2:00 1015 - 0,6
Mo, 22.05. 20:00 1016 - 1,1
Mo, 22.05. 14:00 1019 - 1,3
Mo, 22.05. 8:00 1021 - 0,5
Ortszeit Luftdruck NN (hPa) Tendenz (hPa in 3 Std.)
Di, 23.05. 7:00 1016 + 0,6
Di, 23.05. 6:30 1016 + 0,4
Di, 23.05. 6:00 1015 + 0,3
Di, 23.05. 5:30 1016 + 0,3
Di, 23.05. 5:00 1015 - 0,1
Di, 23.05. 4:30 1015 - 0,3
Ortszeit Schneehöhe (cm)
Di, 23.05. 2:00 -
Mo, 22.05. 20:00 -
Mo, 22.05. 14:00 -
Mo, 22.05. 8:00 -
Ortszeit Schneehöhe (cm)
Di, 23.05. 7:00 -
Di, 23.05. 6:30 -
Di, 23.05. 6:00 -
Di, 23.05. 5:30 -
Di, 23.05. 5:00 -
Di, 23.05. 4:30 -
Link zu dieser Seite / Seite empfehlen

Das Wetter in ...